This is the latest recevied weather packets stored in our database for station/object VY2CRA-4. If no packets are shown the sender has not sent any weather packets the latest 10 day(s).
| Time | Temp. | Humidity | Pressure | Rain* | Wind** | Luminosity | Snow |
|---|---|---|---|---|---|---|---|
| 1787638737 | 26.67° C | 40% | 1010.6 hPa | 0 mm | - | - | - |
| 1787636336 | 27.22° C | 40% | 1010.7 hPa | 0 mm | - | - | - |
| 1787635134 | 27.78° C | 40% | 1010.8 hPa | 0 mm | - | - | - |
| 1787632733 | 27.78° C | 40% | 1010.9 hPa | 0 mm | - | - | - |
| 1787631532 | 27.78° C | 41% | 1011.2 hPa | 0 mm | - | - | - |
| 1787630331 | 27.78° C | 41% | 1011.3 hPa | 0 mm | - | - | - |
| 1787630061 | 27.78° C | 42% | 1011.3 hPa | 0 mm | - | - | - |
| 1787629130 | 27.78° C | 42% | 1011.3 hPa | 0 mm | - | - | - |
| 1787625527 | 27.22° C | 43% | 1011.1 hPa | 0 mm | - | - | - |
| 1787624326 | 27.22° C | 44% | 1010.9 hPa | 0 mm | - | - | - |
| 1787623125 | 27.22° C | 45% | 1010.9 hPa | 0 mm | - | - | - |
| 1787621924 | 27.22° C | 44% | 1010.9 hPa | 0 mm | - | - | - |
| 1787620723 | 27.22° C | 44% | 1010.8 hPa | 0 mm | - | - | - |
| 1787618321 | 27.78° C | 42% | 1010.7 hPa | 0 mm | - | - | - |
| 1787617120 | 28.33° C | 41% | 1010.9 hPa | 0 mm | - | - | - |
| 1787615919 | 28.33° C | 42% | 1011 hPa | 0 mm | - | - | - |
| 1787614719 | 28.33° C | 43% | 1010.7 hPa | 0 mm | - | - | - |
| 1787613518 | 28.89° C | 41% | 1010.5 hPa | 0 mm | - | - | - |
| 1787611116 | 30° C | 36% | 1010.2 hPa | 0 mm | - | - | - |
| 1787607513 | 32.22° C | 28% | 1010.5 hPa | 0 mm | - | - | - |
| 1787603910 | 32.78° C | 28% | 1010.4 hPa | 0 mm | - | - | - |
| 1787602709 | 33.33° C | 26% | 1010.7 hPa | 0 mm | - | - | - |
| 1787600307 | 33.89° C | 22% | 1010.8 hPa | 0 mm | - | - | - |
| 1787596705 | 33.89° C | 22% | 1011.1 hPa | 0 mm | - | - | - |
| 1787595503 | 33.89° C | 22% | 1011.2 hPa | 0 mm | - | - | - |
* Rain since midnight (hover to see other rain measurements)
** Current wind speed in m/s (hover to see current wind gust speed)